createdAt,value
2022-11-18T00:00:15.167Z,99528.23
2022-11-18T00:03:00.803Z,99527.31
2022-11-18T00:05:31.927Z,99526.30
2022-11-18T00:08:03.625Z,99523.29
2022-11-18T00:10:35.381Z,99523.02
2022-11-18T00:13:25.529Z,99525.13
2022-11-18T00:16:02.434Z,99529.36
2022-11-18T00:18:31.402Z,99523.41
2022-11-18T00:21:03.771Z,99518.64
2022-11-18T00:23:34.622Z,99514.45
2022-11-18T00:26:17.449Z,99518.52
2022-11-18T00:28:47.662Z,99510.45
2022-11-18T00:31:16.558Z,99512.48
2022-11-18T00:33:44.945Z,99512.45
2022-11-18T00:36:13.705Z,99509.42
2022-11-18T00:38:42.711Z,99508.37
2022-11-18T00:41:15.495Z,99508.23
2022-11-18T00:43:44.326Z,99506.96
2022-11-18T00:46:19.405Z,99511.91
2022-11-18T00:48:48.444Z,99508.81
2022-11-18T00:51:18.418Z,99511.16
2022-11-18T00:53:46.828Z,99509.61
2022-11-18T00:56:15.459Z,99509.48
2022-11-18T00:58:44.377Z,99512.94
2022-11-18T01:01:13.933Z,99517.39
2022-11-18T01:03:42.613Z,99519.72
2022-11-18T01:06:17.269Z,99516.30
2022-11-18T01:08:48.569Z,99510.14
2022-11-18T01:11:38.463Z,99508.73
2022-11-18T01:14:12.018Z,99503.23
2022-11-18T01:16:50.930Z,99503.58
2022-11-18T01:19:20.307Z,99503.30
2022-11-18T01:21:48.874Z,99505.89
2022-11-18T01:24:17.895Z,99504.52
2022-11-18T01:26:46.737Z,99503.11
2022-11-18T01:29:16.046Z,99497.94
2022-11-18T01:32:09.123Z,99498.32
2022-11-18T01:34:34.610Z,99494.50
2022-11-18T01:37:04.114Z,99495.24
2022-11-18T01:39:32.503Z,99496.33
2022-11-18T01:42:04.861Z,99492.95
2022-11-18T01:44:57.971Z,99489.91
2022-11-18T01:47:36.085Z,99488.60
2022-11-18T01:50:08.805Z,99486.74
2022-11-18T01:52:41.897Z,99490.38
2022-11-18T01:55:18.160Z,99486.09
2022-11-18T01:57:49.833Z,99479.95
2022-11-18T02:00:18.534Z,99476.02
2022-11-18T02:02:47.960Z,99472.16
2022-11-18T02:05:18.224Z,99475.39
2022-11-18T02:07:47.451Z,99469.39
2022-11-18T02:10:23.216Z,99466.27
2022-11-18T02:12:56.159Z,99462.19
2022-11-18T02:15:34.531Z,99468.88
2022-11-18T02:18:15.144Z,99472.38
2022-11-18T02:20:46.548Z,99472.84
2022-11-18T02:23:53.568Z,99469.77
2022-11-18T02:27:07.582Z,99468.27
2022-11-18T02:29:41.326Z,99466.55
2022-11-18T02:32:18.873Z,99469.00
2022-11-18T02:34:51.636Z,99472.34
2022-11-18T02:37:28.604Z,99479.24
2022-11-18T02:40:02.080Z,99479.02
2022-11-18T02:42:33.674Z,99475.94
2022-11-18T02:45:07.521Z,99471.45
2022-11-18T02:47:38.361Z,99467.89
2022-11-18T02:50:12.880Z,99467.08
2022-11-18T02:52:45.582Z,99467.74
2022-11-18T02:55:17.275Z,99473.73
2022-11-18T02:57:48.161Z,99472.80
2022-11-18T03:00:18.653Z,99471.70
2022-11-18T03:02:49.550Z,99465.12
2022-11-18T03:05:23.824Z,99458.40
2022-11-18T03:07:57.652Z,99460.02
2022-11-18T03:10:33.366Z,99457.77
2022-11-18T03:13:11.965Z,99456.92
2022-11-18T03:15:46.280Z,99450.30
2022-11-18T03:18:23.288Z,99446.47
2022-11-18T03:20:58.590Z,99442.14
2022-11-18T03:23:33.877Z,99445.27
2022-11-18T03:26:09.169Z,99439.55
2022-11-18T03:28:42.716Z,99434.20
2022-11-18T03:31:15.805Z,99432.10
2022-11-18T03:33:50.001Z,99429.23
2022-11-18T03:36:22.206Z,99429.73
2022-11-18T03:38:55.783Z,99432.45
2022-11-18T03:41:26.418Z,99429.10
2022-11-18T03:43:59.972Z,99425.70
2022-11-18T03:46:39.254Z,99426.02
2022-11-18T03:49:16.763Z,99430.77
2022-11-18T03:51:51.783Z,99436.09
2022-11-18T03:54:24.260Z,99437.66
2022-11-18T03:56:59.455Z,99433.15
2022-11-18T03:59:33.068Z,99431.44
2022-11-18T04:02:12.545Z,99431.42
2022-11-18T04:04:43.484Z,99433.66
2022-11-18T04:07:22.385Z,99435.08
2022-11-18T04:09:59.957Z,99430.63
2022-11-18T04:12:33.088Z,99438.58
2022-11-18T04:15:02.083Z,99438.92
2022-11-18T04:17:32.714Z,99440.71
2022-11-18T04:20:02.038Z,99439.91
2022-11-18T04:22:30.361Z,99442.52
2022-11-18T04:24:58.676Z,99438.27
2022-11-18T04:27:30.597Z,99436.35
2022-11-18T04:30:00.406Z,99437.88
2022-11-18T04:32:29.603Z,99436.88
2022-11-18T04:34:58.803Z,99442.61
2022-11-18T04:37:27.098Z,99445.19
2022-11-18T04:39:55.918Z,99443.20
2022-11-18T04:42:27.362Z,99438.50
2022-11-18T04:44:56.103Z,99437.20
2022-11-18T04:50:29.249Z,99437.59
2022-11-18T04:52:57.860Z,99437.40
2022-11-18T04:55:26.792Z,99439.94
2022-11-18T04:57:56.655Z,99438.30
2022-11-18T05:00:26.835Z,99439.93
2022-11-18T05:02:55.154Z,99440.18
2022-11-18T05:05:23.691Z,99439.61
2022-11-18T05:07:52.215Z,99440.94
2022-11-18T05:10:20.537Z,99433.83
2022-11-18T05:12:49.005Z,99436.58
2022-11-18T05:15:18.844Z,99437.17
2022-11-18T05:17:47.242Z,99435.45
2022-11-18T05:20:17.094Z,99435.65
2022-11-18T05:22:45.476Z,99432.52
2022-11-18T05:25:14.000Z,99436.76
2022-11-18T05:27:43.822Z,99434.55
2022-11-18T05:30:19.124Z,99433.52
2022-11-18T05:32:49.642Z,99430.77
2022-11-18T05:35:19.871Z,99429.14
2022-11-18T05:37:50.960Z,99424.58
2022-11-18T05:40:19.445Z,99424.67
2022-11-18T05:43:09.254Z,99424.55
2022-11-18T05:45:39.255Z,99420.73
2022-11-18T05:48:14.304Z,99420.63
2022-11-18T05:50:48.005Z,99424.43
2022-11-18T05:53:24.139Z,99424.48
2022-11-18T05:55:57.045Z,99424.17
2022-11-18T05:58:25.401Z,99429.45
2022-11-18T06:01:01.165Z,99427.23
2022-11-18T06:03:31.757Z,99428.36
2022-11-18T06:06:03.045Z,99427.16
2022-11-18T06:08:35.391Z,99431.17
2022-11-18T06:11:05.421Z,99428.06
2022-11-18T06:13:39.994Z,99428.92
2022-11-18T06:16:08.715Z,99426.77
2022-11-18T06:18:36.988Z,99425.50
2022-11-18T06:21:06.489Z,99425.48
2022-11-18T06:23:37.223Z,99424.71
2022-11-18T06:26:07.374Z,99425.13
2022-11-18T06:28:36.793Z,99429.52
2022-11-18T06:31:06.276Z,99430.64
2022-11-18T06:33:38.580Z,99431.02
2022-11-18T06:36:12.153Z,99433.33
2022-11-18T06:38:46.615Z,99431.79
2022-11-18T06:41:15.192Z,99430.25
2022-11-18T06:43:43.745Z,99433.23
2022-11-18T06:46:43.799Z,99433.17
2022-11-18T06:49:12.974Z,99439.85
2022-11-18T06:51:42.906Z,99442.29
2022-11-18T06:54:16.656Z,99440.53
2022-11-18T06:56:45.796Z,99447.86
2022-11-18T06:59:21.150Z,99447.20
2022-11-18T07:01:50.734Z,99451.96
2022-11-18T07:04:19.431Z,99446.59
2022-11-18T07:06:47.713Z,99447.95
2022-11-18T07:09:17.218Z,99447.55
2022-11-18T07:11:46.099Z,99448.45
2022-11-18T07:14:14.806Z,99454.64
2022-11-18T07:16:47.248Z,99452.62
2022-11-18T07:19:16.626Z,99450.38
2022-11-18T07:21:48.600Z,99452.01
2022-11-18T07:24:17.211Z,99454.54
2022-11-18T07:26:45.885Z,99457.94
2022-11-18T07:29:14.492Z,99459.64
2022-11-18T07:31:48.665Z,99459.32
2022-11-18T07:34:18.537Z,99458.23
2022-11-18T07:36:46.818Z,99461.42
2022-11-18T07:39:15.480Z,99466.05
2022-11-18T07:41:47.641Z,99469.80
2022-11-18T07:44:17.054Z,99469.67
2022-11-18T07:46:46.447Z,99474.45
2022-11-18T07:49:15.579Z,99476.30
2022-11-18T07:51:46.735Z,99475.54
2022-11-18T07:54:17.044Z,99478.73
2022-11-18T07:56:45.524Z,99478.80
2022-11-18T07:59:13.812Z,99479.48
2022-11-18T08:01:46.511Z,99483.40
2022-11-18T08:04:16.051Z,99483.02
2022-11-18T08:06:47.671Z,99483.05
2022-11-18T08:09:16.333Z,99482.98
2022-11-18T08:11:44.906Z,99483.02
2022-11-18T08:14:14.118Z,99486.92
2022-11-18T08:17:07.663Z,99491.95
2022-11-18T08:19:36.258Z,99494.27
2022-11-18T08:22:04.473Z,99492.30
2022-11-18T08:24:32.894Z,99493.63
2022-11-18T08:27:01.727Z,99497.75
2022-11-18T08:29:30.317Z,99500.79
2022-11-18T08:31:59.171Z,99502.67
2022-11-18T08:34:27.637Z,99504.45
2022-11-18T08:36:58.688Z,99505.75
2022-11-18T08:39:27.470Z,99501.38
2022-11-18T08:41:58.715Z,99503.61
2022-11-18T08:44:27.134Z,99504.77
2022-11-18T08:46:55.469Z,99504.65
2022-11-18T08:49:28.254Z,99507.89
2022-11-18T08:51:59.757Z,99512.04
2022-11-18T08:54:28.088Z,99506.75
2022-11-18T08:56:56.417Z,99506.05
2022-11-18T08:59:24.858Z,99509.67
2022-11-18T09:01:53.558Z,99511.84
2022-11-18T09:04:22.105Z,99516.61
2022-11-18T09:06:50.902Z,99517.27
2022-11-18T09:09:19.618Z,99515.05
2022-11-18T09:11:48.380Z,99512.92
2022-11-18T09:15:11.594Z,99514.11
2022-11-18T09:17:06.647Z,99514.77
2022-11-18T09:19:50.535Z,99514.54
2022-11-18T09:22:19.067Z,99515.39
2022-11-18T09:24:47.551Z,99512.16
2022-11-18T09:27:17.616Z,99508.98
2022-11-18T09:29:46.989Z,99507.22
2022-11-18T09:32:15.559Z,99504.44
2022-11-18T09:34:43.939Z,99503.42
2022-11-18T09:37:16.761Z,99502.44
2022-11-18T09:39:45.241Z,99503.84
2022-11-18T09:42:30.171Z,99503.98
2022-11-18T09:45:24.573Z,99494.83
2022-11-18T09:47:58.636Z,99493.98
2022-11-18T09:50:48.634Z,99497.58
2022-11-18T09:53:20.375Z,99496.34
2022-11-18T09:55:50.232Z,99497.92
2022-11-18T09:58:25.309Z,99494.80
2022-11-18T10:00:54.233Z,99491.98
2022-11-18T10:03:28.502Z,99493.38
2022-11-18T10:06:03.324Z,99493.20
2022-11-18T10:08:37.327Z,99495.80
2022-11-18T10:11:13.386Z,99498.56
2022-11-18T10:13:59.925Z,99500.54
2022-11-18T10:16:48.332Z,99502.08
2022-11-18T10:19:29.099Z,99500.64
2022-11-18T10:22:20.954Z,99502.66
2022-11-18T10:24:54.005Z,99507.65
2022-11-18T10:27:23.434Z,99508.93
2022-11-18T10:29:55.339Z,99516.25
2022-11-18T10:32:24.482Z,99516.96
2022-11-18T10:34:55.860Z,99519.72
2022-11-18T10:37:52.502Z,99516.77
2022-11-18T10:40:26.363Z,99514.98
2022-11-18T10:42:55.541Z,99519.08
2022-11-18T10:45:27.502Z,99519.09
2022-11-18T10:48:00.143Z,99525.91
2022-11-18T10:50:34.591Z,99522.35
2022-11-18T10:53:03.669Z,99528.63
2022-11-18T10:55:32.851Z,99529.52
2022-11-18T10:58:10.857Z,99534.83
2022-11-18T11:00:46.506Z,99535.83
2022-11-18T11:03:33.026Z,99536.29
2022-11-18T11:06:37.542Z,99538.83
2022-11-18T11:09:10.342Z,99539.95
2022-11-18T11:11:54.763Z,99542.04
2022-11-18T11:14:26.743Z,99539.94
2022-11-18T11:17:04.080Z,99538.17
2022-11-18T11:19:41.293Z,99542.73
2022-11-18T11:22:14.419Z,99534.23
2022-11-18T11:24:55.033Z,99536.14
2022-11-18T11:30:45.269Z,99538.48
2022-11-18T11:33:31.301Z,99539.10
2022-11-18T11:36:17.534Z,99537.52
2022-11-18T11:39:04.257Z,99538.95
2022-11-18T11:41:48.845Z,99537.63
2022-11-18T11:44:36.983Z,99540.14
2022-11-18T11:47:40.901Z,99538.13
2022-11-18T11:50:21.766Z,99538.86
2022-11-18T11:53:15.657Z,99541.39
2022-11-18T11:55:59.463Z,99543.52
2022-11-18T11:58:50.703Z,99542.65
2022-11-18T12:01:48.389Z,99544.96
2022-11-18T12:04:43.936Z,99543.94
2022-11-18T12:07:25.803Z,99546.16
2022-11-18T12:10:23.866Z,99545.23
2022-11-18T12:13:03.123Z,99545.16
2022-11-18T12:15:43.314Z,99543.98
2022-11-18T12:18:19.690Z,99545.56
2022-11-18T12:20:51.114Z,99546.95
2022-11-18T12:23:23.474Z,99549.14
2022-11-18T12:26:03.005Z,99546.95
2022-11-18T12:28:50.897Z,99548.33
2022-11-18T12:31:50.135Z,99549.65
2022-11-18T12:34:37.607Z,99552.67
2022-11-18T12:37:43.942Z,99554.33
2022-11-18T12:40:35.266Z,99558.09
2022-11-18T12:43:24.582Z,99559.03
2022-11-18T12:45:55.418Z,99557.09
2022-11-18T12:48:44.282Z,99555.98
2022-11-18T12:51:31.225Z,99555.21
2022-11-18T12:54:22.316Z,99554.95
2022-11-18T12:56:51.031Z,99558.57
2022-11-18T12:59:31.456Z,99557.41
2022-11-18T13:02:05.695Z,99554.76
2022-11-18T13:04:45.807Z,99553.95
2022-11-18T13:07:37.354Z,99550.02
2022-11-18T13:10:22.324Z,99551.10
2022-11-18T13:12:57.849Z,99551.73
2022-11-18T13:15:45.883Z,99553.54
2022-11-18T13:18:17.535Z,99556.95
2022-11-18T13:20:56.074Z,99555.25
2022-11-18T13:23:49.593Z,99554.63
2022-11-18T13:26:23.456Z,99551.39
2022-11-18T13:29:21.678Z,99553.08
2022-11-18T13:32:03.837Z,99550.83
2022-11-18T13:34:40.856Z,99555.98
2022-11-18T13:37:19.724Z,99554.55
2022-11-18T13:39:49.374Z,99560.64
2022-11-18T13:42:21.664Z,99560.84
2022-11-18T13:44:57.239Z,99560.53
2022-11-18T13:47:34.820Z,99561.36
2022-11-18T13:50:20.469Z,99560.21
2022-11-18T13:53:01.297Z,99559.81
2022-11-18T13:55:47.863Z,99564.63
2022-11-18T14:01:53.111Z,99569.25
2022-11-18T14:04:25.066Z,99570.70
2022-11-18T14:07:24.874Z,99569.98
2022-11-18T14:09:55.705Z,99569.23
2022-11-18T14:12:33.132Z,99571.41
2022-11-18T14:15:21.963Z,99576.96
2022-11-18T14:17:56.673Z,99579.13
2022-11-18T14:20:28.131Z,99578.79
2022-11-18T14:23:04.943Z,99583.63
2022-11-18T14:25:51.053Z,99585.16
2022-11-18T14:28:35.681Z,99588.17
2022-11-18T14:31:20.974Z,99592.84
2022-11-18T14:34:18.552Z,99596.94
2022-11-18T14:36:48.078Z,99601.00
2022-11-18T14:39:26.812Z,99601.86
2022-11-18T14:41:59.426Z,99601.16
2022-11-18T14:44:34.792Z,99602.64
2022-11-18T14:47:11.556Z,99606.04
2022-11-18T14:49:41.458Z,99605.43
2022-11-18T14:52:22.746Z,99610.88
2022-11-18T14:54:52.389Z,99614.11
2022-11-18T14:57:23.598Z,99619.48
2022-11-18T14:59:58.917Z,99620.51
2022-11-18T15:02:30.758Z,99621.11
2022-11-18T15:05:06.629Z,99623.33
2022-11-18T15:07:36.393Z,99623.69
2022-11-18T15:10:06.160Z,99625.28
2022-11-18T15:12:37.089Z,99626.57
2022-11-18T15:15:10.934Z,99629.28
2022-11-18T15:17:40.024Z,99635.89
2022-11-18T15:20:15.673Z,99639.88
2022-11-18T15:22:45.222Z,99636.31
2022-11-18T15:25:17.307Z,99637.08
2022-11-18T15:27:46.420Z,99638.14
2022-11-18T15:30:15.932Z,99643.38
2022-11-18T15:32:48.692Z,99647.66
2022-11-18T15:35:18.534Z,99650.03
2022-11-18T15:37:51.227Z,99652.16
2022-11-18T15:40:27.898Z,99651.67
2022-11-18T15:42:59.056Z,99650.84
2022-11-18T15:45:28.751Z,99650.31
2022-11-18T15:47:59.896Z,99656.20
2022-11-18T15:50:28.726Z,99658.54
2022-11-18T15:52:57.837Z,99668.77
2022-11-18T15:55:26.198Z,99670.23
2022-11-18T15:57:55.209Z,99677.23
2022-11-18T16:00:31.372Z,99684.71
2022-11-18T16:03:02.213Z,99686.02
2022-11-18T16:05:40.904Z,99689.63
2022-11-18T16:08:18.740Z,99694.13
2022-11-18T16:11:13.092Z,99698.82
2022-11-18T16:13:44.568Z,99703.66
2022-11-18T16:16:19.867Z,99707.15
2022-11-18T16:18:48.958Z,99706.98
2022-11-18T16:21:20.381Z,99710.29
2022-11-18T16:23:50.113Z,99712.86
2022-11-18T16:26:18.893Z,99716.36
2022-11-18T16:28:51.207Z,99719.55
2022-11-18T16:31:43.898Z,99716.37
2022-11-18T16:34:24.913Z,99723.16
2022-11-18T16:37:04.059Z,99725.50
2022-11-18T16:39:35.456Z,99725.87
2022-11-18T16:42:12.007Z,99726.70
2022-11-18T16:44:49.253Z,99732.34
2022-11-18T16:47:27.307Z,99732.19
2022-11-18T16:49:56.386Z,99734.42
2022-11-18T16:52:25.435Z,99738.25
2022-11-18T16:54:54.162Z,99739.59
2022-11-18T16:57:25.412Z,99742.77
2022-11-18T16:59:55.518Z,99742.36
2022-11-18T17:02:24.737Z,99745.27
2022-11-18T17:04:54.092Z,99746.59
2022-11-18T17:07:31.601Z,99747.06
2022-11-18T17:10:05.589Z,99748.40
2022-11-18T17:12:34.517Z,99753.02
2022-11-18T17:15:12.825Z,99753.45
2022-11-18T17:17:45.782Z,99753.25
2022-11-18T17:20:18.691Z,99752.54
2022-11-18T17:22:48.192Z,99749.34
2022-11-18T17:25:19.370Z,99748.16
2022-11-18T17:27:48.828Z,99750.79
2022-11-18T17:30:22.472Z,99751.95
2022-11-18T17:33:02.638Z,99748.95
2022-11-18T17:35:31.483Z,99752.05
2022-11-18T17:38:03.263Z,99759.41
2022-11-18T17:40:32.656Z,99756.27
2022-11-18T17:43:03.310Z,99760.19
2022-11-18T17:45:39.738Z,99760.45
2022-11-18T17:48:13.045Z,99761.77
2022-11-18T17:50:43.593Z,99764.21
2022-11-18T17:53:23.054Z,99759.71
2022-11-18T17:55:56.409Z,99757.92
2022-11-18T17:58:28.596Z,99760.98
2022-11-18T18:01:10.370Z,99759.70
2022-11-18T18:03:42.664Z,99757.71
2022-11-18T18:06:17.585Z,99756.95
2022-11-18T18:08:50.069Z,99760.99
2022-11-18T18:11:21.028Z,99763.08
2022-11-18T18:14:12.859Z,99769.02
2022-11-18T18:16:53.823Z,99772.41
2022-11-18T18:19:23.971Z,99772.41
2022-11-18T18:21:53.295Z,99772.91
2022-11-18T18:24:23.618Z,99774.48
2022-11-18T18:26:52.230Z,99777.96
2022-11-18T18:29:20.836Z,99778.39
2022-11-18T18:31:49.857Z,99781.39
2022-11-18T18:34:22.273Z,99782.99
2022-11-18T18:36:51.198Z,99787.41
2022-11-18T18:39:47.262Z,99787.80
2022-11-18T18:42:18.058Z,99787.11
2022-11-18T18:45:05.510Z,99786.40
2022-11-18T18:47:36.193Z,99785.98
2022-11-18T18:50:09.936Z,99791.89
2022-11-18T18:52:41.383Z,99794.14
2022-11-18T18:55:12.261Z,99797.33
2022-11-18T18:57:48.864Z,99797.32
2022-11-18T19:00:19.201Z,99801.79
2022-11-18T19:02:49.945Z,99800.73
2022-11-18T19:05:38.875Z,99803.14
2022-11-18T19:08:18.608Z,99804.96
2022-11-18T19:10:54.097Z,99802.76
2022-11-18T19:13:23.630Z,99801.16
2022-11-18T19:15:54.936Z,99799.91
2022-11-18T19:18:26.393Z,99802.15
2022-11-18T19:20:55.636Z,99803.09
2022-11-18T19:23:27.387Z,99802.23
2022-11-18T19:26:03.515Z,99803.34
2022-11-18T19:28:33.714Z,99805.54
2022-11-18T19:31:04.257Z,99809.17
2022-11-18T19:33:36.865Z,99807.02
2022-11-18T19:36:12.690Z,99810.92
2022-11-18T19:38:42.098Z,99814.60
2022-11-18T19:41:12.894Z,99815.44
2022-11-18T19:43:44.785Z,99814.98
2022-11-18T19:46:13.800Z,99821.05
2022-11-18T19:48:46.495Z,99822.09
2022-11-18T19:51:16.947Z,99820.30
2022-11-18T19:53:45.868Z,99819.24
2022-11-18T19:56:18.689Z,99817.48
2022-11-18T19:58:49.708Z,99821.45
2022-11-18T20:01:22.513Z,99821.79
2022-11-18T20:03:54.284Z,99824.59
2022-11-18T20:06:24.546Z,99826.13
2022-11-18T20:08:55.183Z,99827.59
2022-11-18T20:11:24.307Z,99829.02
2022-11-18T20:13:53.260Z,99825.16
2022-11-18T20:16:27.825Z,99825.49
2022-11-18T20:18:58.252Z,99829.21
2022-11-18T20:21:35.674Z,99833.86
2022-11-18T20:24:08.319Z,99829.83
2022-11-18T20:26:42.946Z,99832.27
2022-11-18T20:29:16.249Z,99834.31
2022-11-18T20:31:48.820Z,99836.61
2022-11-18T20:34:18.736Z,99839.07
2022-11-18T20:36:51.597Z,99841.71
2022-11-18T20:39:22.873Z,99842.97
2022-11-18T20:42:20.143Z,99845.96
2022-11-18T20:44:49.331Z,99844.38
2022-11-18T20:47:19.952Z,99844.59
2022-11-18T20:49:51.135Z,99845.58
2022-11-18T20:52:20.129Z,99849.35
2022-11-18T20:54:48.711Z,99848.64
2022-11-18T20:57:18.594Z,99850.26
2022-11-18T20:59:47.052Z,99854.58
2022-11-18T21:02:22.701Z,99854.07
2022-11-18T21:04:51.677Z,99855.27
2022-11-18T21:07:20.418Z,99862.61
2022-11-18T21:09:49.836Z,99862.47
2022-11-18T21:12:25.936Z,99863.83
2022-11-18T21:15:03.028Z,99865.89
2022-11-18T21:17:31.709Z,99866.61
2022-11-18T21:20:20.074Z,99864.02
2022-11-18T21:22:48.658Z,99869.09
2022-11-18T21:25:20.041Z,99871.83
2022-11-18T21:27:48.576Z,99870.84
2022-11-18T21:30:19.830Z,99869.77
2022-11-18T21:32:48.510Z,99874.48
2022-11-18T21:35:23.704Z,99878.54
2022-11-18T21:38:01.818Z,99882.42
2022-11-18T21:40:30.880Z,99875.11
2022-11-18T21:43:00.637Z,99876.93
2022-11-18T21:45:29.077Z,99879.11
2022-11-18T21:47:57.808Z,99881.15
2022-11-18T21:50:28.067Z,99884.16
2022-11-18T21:52:57.856Z,99882.64
2022-11-18T21:55:26.246Z,99880.91
2022-11-18T21:57:55.985Z,99882.70
2022-11-18T22:00:27.317Z,99888.45
2022-11-18T22:02:55.599Z,99886.75
2022-11-18T22:05:23.908Z,99887.58
2022-11-18T22:07:53.718Z,99888.42
2022-11-18T22:10:25.484Z,99891.65
2022-11-18T22:12:54.235Z,99892.31
2022-11-18T22:15:22.544Z,99893.98
2022-11-18T22:17:50.977Z,99893.02
2022-11-18T22:20:19.830Z,99891.17
2022-11-18T22:22:52.027Z,99894.04
2022-11-18T22:25:20.418Z,99897.04
2022-11-18T22:27:48.744Z,99901.80
2022-11-18T22:30:20.860Z,99904.91
2022-11-18T22:32:50.832Z,99903.19
2022-11-18T22:35:20.545Z,99910.86
2022-11-18T22:37:48.874Z,99905.85
2022-11-18T22:40:18.568Z,99905.45
2022-11-18T22:42:48.407Z,99907.98
2022-11-18T22:45:18.155Z,99911.30
2022-11-18T22:47:46.789Z,99909.05
2022-11-18T22:50:16.848Z,99912.21
2022-11-18T22:52:45.187Z,99909.07
2022-11-18T22:55:13.612Z,99909.39
2022-11-18T22:57:45.779Z,99912.10
2022-11-18T23:00:17.212Z,99910.58
2022-11-18T23:02:48.747Z,99909.56
2022-11-18T23:05:18.711Z,99912.17
2022-11-18T23:07:47.361Z,99908.34
2022-11-18T23:10:21.259Z,99907.01
2022-11-18T23:13:09.220Z,99906.13
2022-11-18T23:15:37.534Z,99902.67
2022-11-18T23:18:11.154Z,99904.69
2022-11-18T23:20:40.844Z,99906.06
2022-11-18T23:23:09.344Z,99912.70
2022-11-18T23:25:37.641Z,99908.29
2022-11-18T23:28:06.949Z,99910.59
2022-11-18T23:30:38.491Z,99907.21
2022-11-18T23:33:06.808Z,99906.16
2022-11-18T23:35:35.271Z,99912.52
2022-11-18T23:38:03.694Z,99908.59
2022-11-18T23:40:34.589Z,99908.27
2022-11-18T23:43:02.959Z,99904.00
2022-11-18T23:45:31.600Z,99903.25
2022-11-18T23:48:00.945Z,99903.62
2022-11-18T23:50:29.149Z,99901.80
2022-11-18T23:52:57.808Z,99902.59
2022-11-18T23:55:26.227Z,99903.13
2022-11-18T23:57:54.465Z,99899.06
